Emerald Coast — WDC9127 — position and weather

sailwx.info

Track history (hours):
 
Tides and Currents Weather Stations Pressure Air Temp Water Temp Dewpoint Dewpoint Depression Visibility Wind Speed Wind Dir Waves Ship Positions

Emerald Coast

Owner: Dann Marine Towing, LC, Chesapeake City, MD. More information available from US FCC via Universal Licensing System and Coast Guard Vessel Documentation Center.

Last reported at 2014-Nov-21 15:34 UTC. Time now 2014-Nov-21 16:30 UTC.
Position N 40°39' W 074°05'.

; draft 3 m.

Type: Towing. MMSI: 367097920.

Date/timePositionNaut miles runAvg speedWind from/ knotsBaromVisibWave heightAir tempDewpointWater temp
2014-Nov-21 15:34N 40°39' W 074°05'3 2.8
2014-Nov-21 14:34N 40°40' W 074°09'0 0.0
2014-Nov-21 13:33N 40°40' W 074°09'0 0.0
2014-Nov-21 12:33N 40°40' W 074°09'0 0.0
2014-Nov-21 11:34N 40°40' W 074°09'0 0.0
2014-Nov-21 10:34N 40°40' W 074°09'0 0.0
2014-Nov-21 09:34N 40°40' W 074°09'0 0.0
2014-Nov-21 08:33N 40°40' W 074°09'0 0.0
2014-Nov-21 07:34N 40°40' W 074°09'0 0.0
2014-Nov-21 06:33N 40°40' W 074°09'0 0.0
2014-Nov-21 05:33N 40°40' W 074°09'0 0.0
2014-Nov-21 04:34N 40°40' W 074°09'0 0.2
2014-Nov-21 03:32N 40°40' W 074°09'0 0.1
2014-Nov-21 02:33N 40°40' W 074°08'2 1.5
2014-Nov-21 01:33N 40°41' W 074°09'0 0.0
2014-Nov-21 00:34N 40°41' W 074°09'0 0.0
2014-Nov-20 23:33N 40°41' W 074°09'2 1.5
2014-Nov-20 22:33N 40°40' W 074°08'2 1.9
2014-Nov-20 21:33N 40°39' W 074°06'1 0.1
2014-Nov-20 14:34N 40°39' W 074°05'3 3.1
2014-Nov-20 13:33N 40°40' W 074°01'8 7.4
2014-Nov-20 12:31N 40°47' W 073°56'0 0.0
2014-Nov-20 10:33N 40°47' W 073°56'8 8.0
2014-Nov-20 09:34N 40°41' W 074°03'1 1.1
2014-Nov-20 08:33N 40°40' W 074°04'1 0.8
2014-Nov-20 07:34N 40°40' W 074°05'0 0.0
2014-Nov-20 06:34N 40°40' W 074°05'0 0.0
2014-Nov-20 05:34N 40°40' W 074°05'2 0.5
2014-Nov-20 00:18N 40°39' W 074°07'5 7.2
2014-Nov-19 23:33N 40°40' W 074°00'1 1.1
2014-Nov-19 22:34N 40°41' W 074°01'0 0.0
2014-Nov-19 21:33N 40°41' W 074°01'0 0.0
2014-Nov-19 20:33N 40°41' W 074°01'0 0.0
2014-Nov-19 19:33N 40°41' W 074°01'0 0.0
2014-Nov-19 18:34N 40°41' W 074°01'0 0.0
2014-Nov-19 17:34N 40°41' W 074°01'0 0.0
2014-Nov-19 16:34N 40°41' W 074°01'2 1.7
2014-Nov-19 15:34N 40°40' W 074°03'3 2.8
2014-Nov-19 14:33N 40°39' W 074°06'2 2.3
2014-Nov-19 13:33N 40°39' W 074°09'4 3.8
2014-Nov-19 12:33N 40°40' W 074°04'1 1.4
2014-Nov-19 11:34N 40°41' W 074°03'3 3.2
2014-Nov-19 10:34N 40°39' W 074°07'1 0.2
2014-Nov-19 07:05N 40°39' W 074°07'4 6.8
2014-Nov-19 06:34N 40°40' W 074°03'3 3.0
2014-Nov-19 05:33N 40°39' W 074°06'1 1.5
2014-Nov-19 04:33N 40°39' W 074°05'3 3.2
2014-Nov-19 03:34N 40°40' W 074°00'0 0.0
2014-Nov-19 02:34N 40°40' W 074°00'0 0.0
2014-Nov-19 01:33N 40°40' W 074°00'0 0.0
2014-Nov-19 00:33N 40°40' W 074°00'0 0.0
2014-Nov-18 23:34N 40°40' W 074°00'3 3.2
2014-Nov-18 22:34N 40°39' W 074°04'4 3.9
2014-Nov-18 21:33N 40°41' W 074°09'0 0.0
2014-Nov-18 20:34N 40°41' W 074°09'0 0.0
2014-Nov-18 19:34N 40°41' W 074°09'0 0.0
2014-Nov-18 18:33N 40°41' W 074°09'0 0.4
2014-Nov-18 17:34N 40°41' W 074°09'0 0.2
2014-Nov-18 16:34N 40°41' W 074°10'0 0.0
2014-Nov-18 15:33N 40°41' W 074°10'0 0.0
2014-Nov-18 14:33N 40°41' W 074°10'0 0.0
2014-Nov-18 13:33N 40°41' W 074°10'0 0.0
2014-Nov-18 12:34N 40°41' W 074°10'3 2.7
2014-Nov-18 11:34N 40°39' W 074°09'2 2.1
2014-Nov-18 10:34N 40°39' W 074°06'4 4.4
2014-Nov-18 09:33N 40°40' W 074°00'4 3.7
2014-Nov-18 08:33N 40°39' W 074°05'0 0.0
2014-Nov-18 07:34N 40°39' W 074°05'0 0.0
2014-Nov-18 06:33N 40°39' W 074°05'0 0.0
2014-Nov-18 05:33N 40°39' W 074°05'0 0.0
2014-Nov-18 04:34N 40°39' W 074°05'2 0.5
2014-Nov-18 01:24N 40°39' W 074°07'0 0.0
2014-Nov-18 00:33N 40°39' W 074°07'0 0.0
2014-Nov-17 23:20N 40°39' W 074°07'1 0.7
2014-Nov-17 22:33N 40°39' W 074°06'3 3.1
2014-Nov-17 21:34N 40°39' W 074°02'2 1.9
2014-Nov-17 20:33N 40°40' W 074°00'0 0.0
2014-Nov-17 19:33N 40°40' W 074°00'2 1.7
2014-Nov-17 18:33N 40°39' W 074°02'2 1.8
2014-Nov-17 17:34N 40°40' W 074°04'0 0.0
2014-Nov-17 16:33N 40°40' W 074°04'0 0.0
2014-Nov-17 15:33N 40°40' W 074°04'0 0.0
2014-Nov-17 14:34N 40°40' W 074°04'1 0.6
2014-Nov-17 13:34N 40°39' W 074°04'2 0.7
2014-Nov-17 10:12N 40°39' W 074°07'1 2.3
2014-Nov-17 09:33N 40°39' W 074°05'4 3.9
2014-Nov-17 08:34N 40°40' W 074°01'0 0.0
2014-Nov-17 07:33N 40°40' W 074°01'0 0.0
2014-Nov-17 06:34N 40°40' W 074°01'0 0.0
2014-Nov-17 05:34N 40°40' W 074°01'0 0.0
2014-Nov-17 04:34N 40°40' W 074°01'0 0.0
2014-Nov-17 03:33N 40°40' W 074°01'0 0.0
2014-Nov-17 02:34N 40°40' W 074°01'0 0.0
2014-Nov-17 01:34N 40°40' W 074°01'0 0.0
2014-Nov-17 00:33N 40°40' W 074°01'0 0.0
2014-Nov-16 23:34N 40°40' W 074°01'0 0.0
2014-Nov-16 22:34N 40°40' W 074°01'0 0.0
2014-Nov-16 21:33N 40°40' W 074°01'0 0.0
2014-Nov-16 20:33N 40°40' W 074°01'0 0.0
2014-Nov-16 19:34N 40°40' W 074°01'0 0.0
2014-Nov-16 18:34N 40°40' W 074°01'0 0.0
2014-Nov-16 17:34N 40°40' W 074°01'0 0.0
2014-Nov-16 16:34N 40°40' W 074°01'0 0.0
2014-Nov-16 15:33N 40°40' W 074°01'2 2.3
2014-Nov-16 14:33N 40°39' W 074°03'0 0.0
2014-Nov-16 13:33N 40°39' W 074°03'0 0.0
2014-Nov-16 12:33N 40°39' W 074°03'0 0.0
2014-Nov-16 11:34N 40°39' W 074°03'0 0.1
2014-Nov-16 10:33N 40°39' W 074°03'0 0.2
2014-Nov-16 09:34N 40°39' W 074°03'0 0.0
2014-Nov-16 08:33N 40°39' W 074°03'0 0.0
2014-Nov-16 07:34N 40°39' W 074°03'0 0.0
2014-Nov-16 06:34N 40°39' W 074°03'0 0.0
2014-Nov-16 05:33N 40°39' W 074°03'0 0.2
2014-Nov-16 04:34N 40°39' W 074°03'0 0.1
2014-Nov-16 03:33N 40°39' W 074°03'2 1.9
2014-Nov-16 02:33N 40°39' W 074°05'0 0.0
2014-Nov-16 01:33N 40°39' W 074°05'0 0.0
2014-Nov-16 00:34N 40°39' W 074°05'1 0.9
2014-Nov-15 23:34N 40°39' W 074°04'2 0.2
2014-Nov-15 13:25N 40°39' W 074°07'0 0.0
2014-Nov-15 11:33N 40°39' W 074°07'0 0.0
2014-Nov-15 05:05N 40°39' W 074°07'1 2.5
2014-Nov-15 04:33N 40°39' W 074°06'3 3.0
2014-Nov-15 03:33N 40°41' W 074°08'0 0.1
2014-Nov-15 02:31N 40°41' W 074°08'0 0.0
2014-Nov-15 01:33N 40°41' W 074°08'0 0.0
2014-Nov-15 00:33N 40°41' W 074°08'0 0.0
2014-Nov-14 23:33N 40°41' W 074°08'0 0.0
2014-Nov-14 22:28N 40°41' W 074°08'0 0.0
2014-Nov-14 21:33N 40°41' W 074°08'0 0.0
2014-Nov-14 20:34N 40°41' W 074°08'0 0.0
2014-Nov-14 19:33N 40°41' W 074°08'3 2.7
2014-Nov-14 18:33N 40°39' W 074°07'1 0.5
2014-Nov-14 17:20N 40°39' W 074°07'0 0.0
2014-Nov-14 16:25N 40°39' W 074°07'0 0.0
2014-Nov-14 15:22N 40°39' W 074°07'0 0.0
2014-Nov-14 14:29N 40°38' W 074°07'0 0.0
2014-Nov-14 11:31N 40°38' W 074°07'0 0.0
2014-Nov-14 10:28N 40°38' W 074°07'0 0.1
2014-Nov-14 09:27N 40°39' W 074°07'3 3.4
2014-Nov-14 08:34N 40°39' W 074°03'3 2.6
2014-Nov-14 07:34N 40°40' W 074°00'0 0.0
2014-Nov-14 06:34N 40°40' W 074°00'0 0.0
2014-Nov-14 05:34N 40°40' W 074°00'0 0.0
2014-Nov-14 04:33N 40°40' W 074°00'0 0.0
2014-Nov-14 03:34N 40°40' W 074°00'0 0.0
2014-Nov-14 02:33N 40°40' W 074°00'0 0.0
2014-Nov-14 01:34N 40°40' W 074°00'0 0.0
2014-Nov-14 00:34N 40°40' W 074°00'4 3.8
2014-Nov-13 23:33N 40°37' W 074°04'0 0.0
2014-Nov-13 22:34N 40°37' W 074°04'0 0.0
2014-Nov-13 21:33N 40°37' W 074°04'4 3.6
2014-Nov-13 20:33N 40°40' W 074°01'0 0.0
2014-Nov-13 19:34N 40°40' W 074°01'3 3.2
2014-Nov-13 18:33N 40°38' W 074°04'3 3.4
2014-Nov-13 17:34N 40°40' W 074°00'2 2.0
2014-Nov-13 16:34N 40°40' W 074°03'4 1.9
2014-Nov-13 14:31N 40°38' W 074°07'0 0.0
2014-Nov-13 11:07N 40°38' W 074°07'0 0.0
2014-Nov-13 10:07N 40°38' W 074°07'0 0.0
2014-Nov-13 00:24N 40°38' W 074°07'0 0.0
2014-Nov-12 23:25N 40°38' W 074°07'0 0.1
2014-Nov-12 22:34N 40°39' W 074°07'3 3.1
2014-Nov-12 21:33N 40°39' W 074°03'1 1.2
2014-Nov-12 20:34N 40°38' W 074°04'0 0.0
2014-Nov-12 19:33N 40°38' W 074°04'0 0.2
2014-Nov-12 18:34N 40°38' W 074°04'0 0.0
2014-Nov-12 17:34N 40°38' W 074°04'0 0.1
2014-Nov-12 16:34N 40°38' W 074°04'2 1.8
2014-Nov-12 15:34N 40°40' W 074°04'0 0.0
2014-Nov-12 14:33N 40°40' W 074°04'0 0.0
2014-Nov-12 13:34N 40°40' W 074°04'0 0.0
2014-Nov-12 12:33N 40°40' W 074°04'0 0.0
2014-Nov-12 11:34N 40°40' W 074°04'0 0.0
2014-Nov-12 10:34N 40°40' W 074°04'0 0.0
2014-Nov-12 09:34N 40°40' W 074°04'0 0.0
2014-Nov-12 08:33N 40°40' W 074°04'0 0.0
2014-Nov-12 07:34N 40°40' W 074°04'0 0.0
2014-Nov-12 06:33N 40°40' W 074°04'0 0.0
2014-Nov-12 05:34N 40°40' W 074°04'0 0.0
2014-Nov-12 04:33N 40°40' W 074°04'0 0.0
2014-Nov-12 03:33N 40°40' W 074°04'0 0.2
2014-Nov-12 02:33N 40°40' W 074°04'3 0.9
2014-Nov-11 23:26N 40°38' W 074°07'0 0.0
2014-Nov-11 22:05N 40°39' W 074°07'2 4.5
2014-Nov-11 21:33N 40°40' W 074°05'0 0.0
2014-Nov-11 20:33N 40°40' W 074°05'0 0.0
2014-Nov-11 19:33N 40°40' W 074°05'0 0.0
2014-Nov-11 18:34N 40°40' W 074°05'0 0.0
2014-Nov-11 17:33N 40°40' W 074°05'1 1.4
2014-Nov-11 16:33N 40°40' W 074°03'  
Track history (hours):
 
Tides and Currents Weather Stations Pressure Air Temp Water Temp Dewpoint Dewpoint Depression Visibility Wind Speed Wind Dir Waves Ship Positions

Emerald Coast

Owner: Dann Marine Towing, LC, Chesapeake City, MD. More information available from US FCC via Universal Licensing System and Coast Guard Vessel Documentation Center.

Last reported at 2014-Nov-21 15:34 UTC. Time now 2014-Nov-21 16:30 UTC.
Position N 40°39' W 074°05'.

; draft 3 m.

Type: Towing. MMSI: 367097920.

Date/timePositionNaut miles runAvg speedWind from/ knotsBaromVisibWave heightAir tempDewpointWater temp
2014-Nov-21 15:34N 40°39' W 074°05'3 2.8
2014-Nov-21 14:34N 40°40' W 074°09'0 0.0
2014-Nov-21 13:33N 40°40' W 074°09'0 0.0
2014-Nov-21 12:33N 40°40' W 074°09'0 0.0
2014-Nov-21 11:34N 40°40' W 074°09'0 0.0
2014-Nov-21 10:34N 40°40' W 074°09'0 0.0
2014-Nov-21 09:34N 40°40' W 074°09'0 0.0
2014-Nov-21 08:33N 40°40' W 074°09'0 0.0
2014-Nov-21 07:34N 40°40' W 074°09'0 0.0
2014-Nov-21 06:33N 40°40' W 074°09'0 0.0
2014-Nov-21 05:33N 40°40' W 074°09'0 0.0
2014-Nov-21 04:34N 40°40' W 074°09'0 0.2
2014-Nov-21 03:32N 40°40' W 074°09'0 0.1
2014-Nov-21 02:33N 40°40' W 074°08'2 1.5
2014-Nov-21 01:33N 40°41' W 074°09'0 0.0
2014-Nov-21 00:34N 40°41' W 074°09'0 0.0
2014-Nov-20 23:33N 40°41' W 074°09'2 1.5
2014-Nov-20 22:33N 40°40' W 074°08'2 1.9
2014-Nov-20 21:33N 40°39' W 074°06'1 0.1
2014-Nov-20 14:34N 40°39' W 074°05'3 3.1
2014-Nov-20 13:33N 40°40' W 074°01'8 7.4
2014-Nov-20 12:31N 40°47' W 073°56'0 0.0
2014-Nov-20 10:33N 40°47' W 073°56'8 8.0
2014-Nov-20 09:34N 40°41' W 074°03'1 1.1
2014-Nov-20 08:33N 40°40' W 074°04'1 0.8
2014-Nov-20 07:34N 40°40' W 074°05'0 0.0
2014-Nov-20 06:34N 40°40' W 074°05'0 0.0
2014-Nov-20 05:34N 40°40' W 074°05'2 0.5
2014-Nov-20 00:18N 40°39' W 074°07'5 7.2
2014-Nov-19 23:33N 40°40' W 074°00'1 1.1
2014-Nov-19 22:34N 40°41' W 074°01'0 0.0
2014-Nov-19 21:33N 40°41' W 074°01'0 0.0
2014-Nov-19 20:33N 40°41' W 074°01'0 0.0
2014-Nov-19 19:33N 40°41' W 074°01'0 0.0
2014-Nov-19 18:34N 40°41' W 074°01'0 0.0
2014-Nov-19 17:34N 40°41' W 074°01'0 0.0
2014-Nov-19 16:34N 40°41' W 074°01'2 1.7
2014-Nov-19 15:34N 40°40' W 074°03'3 2.8
2014-Nov-19 14:33N 40°39' W 074°06'2 2.3
2014-Nov-19 13:33N 40°39' W 074°09'4 3.8
2014-Nov-19 12:33N 40°40' W 074°04'1 1.4
2014-Nov-19 11:34N 40°41' W 074°03'3 3.2
2014-Nov-19 10:34N 40°39' W 074°07'1 0.2
2014-Nov-19 07:05N 40°39' W 074°07'4 6.8
2014-Nov-19 06:34N 40°40' W 074°03'3 3.0
2014-Nov-19 05:33N 40°39' W 074°06'1 1.5
2014-Nov-19 04:33N 40°39' W 074°05'3 3.2
2014-Nov-19 03:34N 40°40' W 074°00'0 0.0
2014-Nov-19 02:34N 40°40' W 074°00'0 0.0
2014-Nov-19 01:33N 40°40' W 074°00'0 0.0
2014-Nov-19 00:33N 40°40' W 074°00'0 0.0
2014-Nov-18 23:34N 40°40' W 074°00'3 3.2
2014-Nov-18 22:34N 40°39' W 074°04'4 3.9
2014-Nov-18 21:33N 40°41' W 074°09'0 0.0
2014-Nov-18 20:34N 40°41' W 074°09'0 0.0
2014-Nov-18 19:34N 40°41' W 074°09'0 0.0
2014-Nov-18 18:33N 40°41' W 074°09'0 0.4
2014-Nov-18 17:34N 40°41' W 074°09'0 0.2
2014-Nov-18 16:34N 40°41' W 074°10'0 0.0
2014-Nov-18 15:33N 40°41' W 074°10'0 0.0
2014-Nov-18 14:33N 40°41' W 074°10'0 0.0
2014-Nov-18 13:33N 40°41' W 074°10'0 0.0
2014-Nov-18 12:34N 40°41' W 074°10'3 2.7
2014-Nov-18 11:34N 40°39' W 074°09'2 2.1
2014-Nov-18 10:34N 40°39' W 074°06'4 4.4
2014-Nov-18 09:33N 40°40' W 074°00'4 3.7
2014-Nov-18 08:33N 40°39' W 074°05'0 0.0
2014-Nov-18 07:34N 40°39' W 074°05'0 0.0
2014-Nov-18 06:33N 40°39' W 074°05'0 0.0
2014-Nov-18 05:33N 40°39' W 074°05'0 0.0
2014-Nov-18 04:34N 40°39' W 074°05'2 0.5
2014-Nov-18 01:24N 40°39' W 074°07'0 0.0
2014-Nov-18 00:33N 40°39' W 074°07'0 0.0
2014-Nov-17 23:20N 40°39' W 074°07'1 0.7
2014-Nov-17 22:33N 40°39' W 074°06'3 3.1
2014-Nov-17 21:34N 40°39' W 074°02'2 1.9
2014-Nov-17 20:33N 40°40' W 074°00'0 0.0
2014-Nov-17 19:33N 40°40' W 074°00'2 1.7
2014-Nov-17 18:33N 40°39' W 074°02'2 1.8
2014-Nov-17 17:34N 40°40' W 074°04'0 0.0
2014-Nov-17 16:33N 40°40' W 074°04'0 0.0
2014-Nov-17 15:33N 40°40' W 074°04'0 0.0
2014-Nov-17 14:34N 40°40' W 074°04'1 0.6
2014-Nov-17 13:34N 40°39' W 074°04'2 0.7
2014-Nov-17 10:12N 40°39' W 074°07'1 2.3
2014-Nov-17 09:33N 40°39' W 074°05'4 3.9
2014-Nov-17 08:34N 40°40' W 074°01'0 0.0
2014-Nov-17 07:33N 40°40' W 074°01'0 0.0
2014-Nov-17 06:34N 40°40' W 074°01'0 0.0
2014-Nov-17 05:34N 40°40' W 074°01'0 0.0
2014-Nov-17 04:34N 40°40' W 074°01'0 0.0
2014-Nov-17 03:33N 40°40' W 074°01'0 0.0
2014-Nov-17 02:34N 40°40' W 074°01'0 0.0
2014-Nov-17 01:34N 40°40' W 074°01'0 0.0
2014-Nov-17 00:33N 40°40' W 074°01'0 0.0
2014-Nov-16 23:34N 40°40' W 074°01'0 0.0
2014-Nov-16 22:34N 40°40' W 074°01'0 0.0
2014-Nov-16 21:33N 40°40' W 074°01'0 0.0
2014-Nov-16 20:33N 40°40' W 074°01'0 0.0
2014-Nov-16 19:34N 40°40' W 074°01'0 0.0
2014-Nov-16 18:34N 40°40' W 074°01'0 0.0
2014-Nov-16 17:34N 40°40' W 074°01'0 0.0
2014-Nov-16 16:34N 40°40' W 074°01'0 0.0
2014-Nov-16 15:33N 40°40' W 074°01'2 2.3
2014-Nov-16 14:33N 40°39' W 074°03'0 0.0
2014-Nov-16 13:33N 40°39' W 074°03'0 0.0
2014-Nov-16 12:33N 40°39' W 074°03'0 0.0
2014-Nov-16 11:34N 40°39' W 074°03'0 0.1
2014-Nov-16 10:33N 40°39' W 074°03'0 0.2
2014-Nov-16 09:34N 40°39' W 074°03'0 0.0
2014-Nov-16 08:33N 40°39' W 074°03'0 0.0
2014-Nov-16 07:34N 40°39' W 074°03'0 0.0
2014-Nov-16 06:34N 40°39' W 074°03'0 0.0
2014-Nov-16 05:33N 40°39' W 074°03'0 0.2
2014-Nov-16 04:34N 40°39' W 074°03'0 0.1
2014-Nov-16 03:33N 40°39' W 074°03'2 1.9
2014-Nov-16 02:33N 40°39' W 074°05'0 0.0
2014-Nov-16 01:33N 40°39' W 074°05'0 0.0
2014-Nov-16 00:34N 40°39' W 074°05'1 0.9
2014-Nov-15 23:34N 40°39' W 074°04'2 0.2
2014-Nov-15 13:25N 40°39' W 074°07'0 0.0
2014-Nov-15 11:33N 40°39' W 074°07'0 0.0
2014-Nov-15 05:05N 40°39' W 074°07'1 2.5
2014-Nov-15 04:33N 40°39' W 074°06'3 3.0
2014-Nov-15 03:33N 40°41' W 074°08'0 0.1
2014-Nov-15 02:31N 40°41' W 074°08'0 0.0
2014-Nov-15 01:33N 40°41' W 074°08'0 0.0
2014-Nov-15 00:33N 40°41' W 074°08'0 0.0
2014-Nov-14 23:33N 40°41' W 074°08'0 0.0
2014-Nov-14 22:28N 40°41' W 074°08'0 0.0
2014-Nov-14 21:33N 40°41' W 074°08'0 0.0
2014-Nov-14 20:34N 40°41' W 074°08'0 0.0
2014-Nov-14 19:33N 40°41' W 074°08'3 2.7
2014-Nov-14 18:33N 40°39' W 074°07'1 0.5
2014-Nov-14 17:20N 40°39' W 074°07'0 0.0
2014-Nov-14 16:25N 40°39' W 074°07'0 0.0
2014-Nov-14 15:22N 40°39' W 074°07'0 0.0
2014-Nov-14 14:29N 40°38' W 074°07'0 0.0
2014-Nov-14 11:31N 40°38' W 074°07'0 0.0
2014-Nov-14 10:28N 40°38' W 074°07'0 0.1
2014-Nov-14 09:27N 40°39' W 074°07'3 3.4
2014-Nov-14 08:34N 40°39' W 074°03'3 2.6
2014-Nov-14 07:34N 40°40' W 074°00'0 0.0
2014-Nov-14 06:34N 40°40' W 074°00'0 0.0
2014-Nov-14 05:34N 40°40' W 074°00'0 0.0
2014-Nov-14 04:33N 40°40' W 074°00'0 0.0
2014-Nov-14 03:34N 40°40' W 074°00'0 0.0
2014-Nov-14 02:33N 40°40' W 074°00'0 0.0
2014-Nov-14 01:34N 40°40' W 074°00'0 0.0
2014-Nov-14 00:34N 40°40' W 074°00'4 3.8
2014-Nov-13 23:33N 40°37' W 074°04'0 0.0
2014-Nov-13 22:34N 40°37' W 074°04'0 0.0
2014-Nov-13 21:33N 40°37' W 074°04'4 3.6
2014-Nov-13 20:33N 40°40' W 074°01'0 0.0
2014-Nov-13 19:34N 40°40' W 074°01'3 3.2
2014-Nov-13 18:33N 40°38' W 074°04'3 3.4
2014-Nov-13 17:34N 40°40' W 074°00'2 2.0
2014-Nov-13 16:34N 40°40' W 074°03'4 1.9
2014-Nov-13 14:31N 40°38' W 074°07'0 0.0
2014-Nov-13 11:07N 40°38' W 074°07'0 0.0
2014-Nov-13 10:07N 40°38' W 074°07'0 0.0
2014-Nov-13 00:24N 40°38' W 074°07'0 0.0
2014-Nov-12 23:25N 40°38' W 074°07'0 0.1
2014-Nov-12 22:34N 40°39' W 074°07'3 3.1
2014-Nov-12 21:33N 40°39' W 074°03'1 1.2
2014-Nov-12 20:34N 40°38' W 074°04'0 0.0
2014-Nov-12 19:33N 40°38' W 074°04'0 0.2
2014-Nov-12 18:34N 40°38' W 074°04'0 0.0
2014-Nov-12 17:34N 40°38' W 074°04'0 0.1
2014-Nov-12 16:34N 40°38' W 074°04'2 1.8
2014-Nov-12 15:34N 40°40' W 074°04'0 0.0
2014-Nov-12 14:33N 40°40' W 074°04'0 0.0
2014-Nov-12 13:34N 40°40' W 074°04'0 0.0
2014-Nov-12 12:33N 40°40' W 074°04'0 0.0
2014-Nov-12 11:34N 40°40' W 074°04'0 0.0
2014-Nov-12 10:34N 40°40' W 074°04'0 0.0
2014-Nov-12 09:34N 40°40' W 074°04'0 0.0
2014-Nov-12 08:33N 40°40' W 074°04'0 0.0
2014-Nov-12 07:34N 40°40' W 074°04'0 0.0
2014-Nov-12 06:33N 40°40' W 074°04'0 0.0
2014-Nov-12 05:34N 40°40' W 074°04'0 0.0
2014-Nov-12 04:33N 40°40' W 074°04'0 0.0
2014-Nov-12 03:33N 40°40' W 074°04'0 0.2
2014-Nov-12 02:33N 40°40' W 074°04'3 0.9
2014-Nov-11 23:26N 40°38' W 074°07'0 0.0
2014-Nov-11 22:05N 40°39' W 074°07'2 4.5
2014-Nov-11 21:33N 40°40' W 074°05'0 0.0
2014-Nov-11 20:33N 40°40' W 074°05'0 0.0
2014-Nov-11 19:33N 40°40' W 074°05'0 0.0
2014-Nov-11 18:34N 40°40' W 074°05'0 0.0
2014-Nov-11 17:33N 40°40' W 074°05'1 1.4
2014-Nov-11 16:33N 40°40' W 074°03'  

Dump ship's entire track history